Time;durP1;ratioP1;P1;durP2;ratioP2;P2;SDS_P1;SDS_P2;PMS_P1;PMS_P2;Temp;Humidity;BMP_temperature;BMP_pressure;BME280_temperature;BME280_humidity;BME280_pressure;Samples;Min_cycle;Max_cycle;Signal;HPM_P1;HPM_P2
2021/04/16 00:02:07;;;;;;;3.70;2.10;;;;;;;7.17;51.62;101089.13;5033414;28;20049;-88
2021/04/16 00:04:34;;;;;;;8.30;2.60;;;;;;;7.21;51.73;101083.81;5031891;28;20111;-88
2021/04/16 00:07:00;;;;;;;2.58;2.08;;;;;;;7.23;51.77;101089.88;5015952;28;20054;-88
2021/04/16 00:09:27;;;;;;;2.60;1.90;;;;;;;7.25;51.65;101080.25;5015477;28;20048;-88
2021/04/16 00:11:53;;;;;;;3.67;2.13;;;;;;;7.26;51.54;101080.19;5033373;28;20501;-89
2021/04/16 00:14:20;;;;;;;7.90;2.30;;;;;;;7.28;51.54;101077.53;5033007;28;20049;-85
2021/04/16 00:16:47;;;;;;;3.22;1.60;;;;;;;7.30;51.66;101073.16;5015704;28;20049;-86
2021/04/16 00:19:14;;;;;;;4.28;1.80;;;;;;;7.32;51.87;101079.19;5015716;28;20486;-85
2021/04/16 00:21:41;;;;;;;4.45;2.28;;;;;;;7.33;51.71;101072.22;5033049;28;20053;-85
2021/04/16 00:24:12;;;;;;;3.20;1.88;;;;;;;7.33;51.76;101074.84;5033050;28;20095;-85
2021/04/16 00:26:40;;;;;;;4.65;2.50;;;;;;;7.34;51.74;101072.19;5033320;28;20049;-86
2021/04/16 00:29:07;;;;;;;3.08;2.30;;;;;;;7.35;51.86;101073.91;5015537;28;20052;-86
2021/04/16 00:31:34;;;;;;;6.57;2.13;;;;;;;7.35;51.79;101073.91;5015800;28;20529;-85
2021/04/16 00:34:01;;;;;;;4.70;2.30;;;;;;;7.35;51.55;101066.03;5032810;28;20053;-85
2021/04/16 00:36:28;;;;;;;4.78;2.20;;;;;;;7.36;51.70;101066.91;5033205;28;20533;-85
2021/04/16 00:38:55;;;;;;;3.10;2.38;;;;;;;7.35;51.67;101060.81;5015539;28;20049;-85
2021/04/16 00:41:27;;;;;;;6.57;2.42;;;;;;;7.35;52.00;101059.94;5032957;28;20080;-85
2021/04/16 00:43:53;;;;;;;3.80;2.35;;;;;;;7.35;51.63;101060.81;5015142;28;20221;-88
2021/04/16 00:46:37;;;;;;;5.55;2.30;;;;;;;7.33;51.67;101057.34;5015458;28;20056;-88
2021/04/16 00:49:05;;;;;;;4.22;2.17;;;;;;;7.33;51.97;101052.09;5015380;28;20053;-88
2021/04/16 00:51:41;;;;;;;3.88;2.35;;;;;;;7.30;52.37;101054.81;5032880;28;20049;-88
2021/04/16 00:54:16;;;;;;;6.30;2.60;;;;;;;7.30;51.79;101046.94;5015205;28;20100;-88
2021/04/16 00:56:43;;;;;;;5.47;2.20;;;;;;;7.31;51.67;101053.91;5033004;28;20395;-88
2021/04/16 00:59:10;;;;;;;3.58;2.35;;;;;;;7.30;51.76;101054.81;5014929;28;20049;-88
2021/04/16 01:01:36;;;;;;;5.53;2.00;;;;;;;7.29;52.21;101050.47;5015419;28;20449;-88
2021/04/16 01:04:02;;;;;;;4.35;2.22;;;;;;;7.28;52.02;101048.72;5017093;28;20104;-88
2021/04/16 01:06:28;;;;;;;7.88;2.05;;;;;;;7.28;51.84;101049.59;5018870;28;20445;-88
2021/04/16 01:08:54;;;;;;;5.43;2.17;;;;;;;7.27;52.03;101044.41;5018692;28;20486;-87
2021/04/16 01:11:21;;;;;;;4.30;2.20;;;;;;;7.26;51.90;101050.53;5018590;28;20049;-87
2021/04/16 01:13:48;;;;;;;4.72;2.15;;;;;;;7.25;52.10;101043.59;5018454;28;20049;-87
2021/04/16 01:16:18;;;;;;;5.85;2.60;;;;;;;7.23;52.25;101054.09;5018673;28;20395;-85
2021/04/16 01:18:48;;;;;;;3.78;2.30;;;;;;;7.22;52.26;101056.75;5018771;28;20056;-85
2021/04/16 01:21:20;;;;;;;5.68;2.25;;;;;;;7.19;52.28;101057.66;5018694;28;20049;-88
2021/04/16 01:23:55;;;;;;;3.45;2.30;;;;;;;7.19;52.03;101056.78;5018380;28;20512;-86
2021/04/16 01:26:30;;;;;;;4.60;2.72;;;;;;;7.15;52.42;101058.63;5018463;28;20453;-88
2021/04/16 01:28:56;;;;;;;5.70;2.35;;;;;;;7.13;52.13;101058.66;5018459;28;20128;-87
2021/04/16 01:31:26;;;;;;;6.32;2.33;;;;;;;7.12;52.59;101064.78;5018521;28;20127;-88
2021/04/16 01:33:53;;;;;;;4.47;2.38;;;;;;;7.11;52.42;101054.34;5035795;28;20080;-85
2021/04/16 01:36:34;;;;;;;7.70;2.42;;;;;;;7.08;52.54;101057.91;5018418;28;20045;-88
2021/04/16 01:39:03;;;;;;;7.57;2.40;;;;;;;7.11;52.30;101056.97;5035810;28;20048;-88
2021/04/16 01:41:30;;;;;;;5.00;2.10;;;;;;;7.10;52.34;101052.63;5035994;28;20127;-83
2021/04/16 01:44:11;;;;;;;5.95;2.55;;;;;;;7.07;52.22;101052.69;5035636;28;20061;-85
2021/04/16 01:47:00;;;;;;;4.28;2.55;;;;;;;7.00;52.14;101051.97;5018506;28;20052;-86
2021/04/16 01:49:34;;;;;;;6.03;3.10;;;;;;;6.98;52.00;101057.22;5018248;28;20045;-85
2021/04/16 01:52:00;;;;;;;5.78;2.60;;;;;;;6.94;51.61;101054.69;5035637;28;20045;-85
2021/04/16 01:54:26;;;;;;;4.10;2.60;;;;;;;6.87;51.85;101048.72;5035426;28;20100;-83
2021/04/16 01:57:04;;;;;;;5.10;2.30;;;;;;;6.76;52.54;101049.81;5035719;28;20045;-85
2021/04/16 01:59:33;;;;;;;8.43;2.53;;;;;;;6.72;52.26;101053.38;5017651;28;20046;-86
2021/04/16 02:01:59;;;;;;;7.35;2.65;;;;;;;6.67;52.46;101047.38;5018014;28;20049;-87
2021/04/16 02:04:26;;;;;;;4.18;2.83;;;;;;;6.62;52.48;101044.84;5017844;28;20053;-88
2021/04/16 02:06:53;;;;;;;3.33;2.15;;;;;;;6.58;52.67;101047.56;5035455;28;20057;-88
2021/04/16 02:09:23;;;;;;;6.55;2.85;;;;;;;6.54;53.03;101053.75;5035292;28;20112;-88
2021/04/16 02:11:49;;;;;;;6.40;2.80;;;;;;;6.51;52.92;101054.69;5017995;28;20054;-88
2021/04/16 02:14:20;;;;;;;8.90;2.85;;;;;;;6.49;53.13;101056.44;5017291;28;20046;-88
2021/04/16 02:16:49;;;;;;;4.88;2.45;;;;;;;6.48;53.10;101062.56;5035020;28;20071;-88
2021/04/16 02:19:15;;;;;;;4.32;2.33;;;;;;;6.47;53.19;101055.63;5017355;28;20510;-88
2021/04/16 02:21:42;;;;;;;4.70;2.92;;;;;;;6.46;53.33;101056.50;5017470;28;20485;-88
2021/04/16 02:24:10;;;;;;;9.95;2.97;;;;;;;6.45;53.34;101054.78;5017253;28;20049;-88
2021/04/16 02:26:37;;;;;;;6.97;3.00;;;;;;;6.46;53.35;101056.50;5017201;28;20053;-88
2021/04/16 02:29:05;;;;;;;6.38;3.20;;;;;;;6.46;53.75;101056.50;5034909;28;20283;-88
2021/04/16 02:31:32;;;;;;;3.92;2.55;;;;;;;6.47;53.42;101050.41;5017191;28;20513;-88
2021/04/16 02:33:59;;;;;;;4.53;2.70;;;;;;;6.48;53.32;101047.75;5034701;28;20054;-88
2021/04/16 02:36:25;;;;;;;6.63;2.42;;;;;;;6.50;53.58;101051.19;5017286;28;20120;-88
2021/04/16 02:38:52;;;;;;;3.58;2.55;;;;;;;6.50;53.58;101053.81;5034664;28;20072;-88
2021/04/16 02:41:19;;;;;;;7.35;2.70;;;;;;;6.52;53.54;101048.56;5017179;28;20046;-88
2021/04/16 02:43:45;;;;;;;3.63;2.70;;;;;;;6.53;53.73;101039.81;5016976;28;20111;-88
2021/04/16 02:46:11;;;;;;;6.18;2.97;;;;;;;6.56;54.01;101051.97;5034577;28;20056;-88
2021/04/16 02:48:38;;;;;;;5.85;3.20;;;;;;;6.57;53.76;101046.69;5034611;28;20437;-88
2021/04/16 02:51:04;;;;;;;9.43;3.20;;;;;;;6.59;53.97;101039.69;5016735;28;20399;-88
2021/04/16 02:53:30;;;;;;;6.78;2.75;;;;;;;6.61;53.77;101045.75;5034904;28;20053;-88
2021/04/16 02:55:57;;;;;;;5.70;2.60;;;;;;;6.64;53.70;101043.09;5016844;28;20509;-88
2021/04/16 02:58:23;;;;;;;7.63;3.55;;;;;;;6.67;53.89;101041.28;5034499;28;20052;-88
2021/04/16 03:00:49;;;;;;;4.15;2.78;;;;;;;6.69;53.56;101044.75;5015676;28;20052;-87
2021/04/16 03:03:15;;;;;;;5.13;2.88;;;;;;;6.70;53.78;101036.00;5032860;28;20057;-87
2021/04/16 03:05:41;;;;;;;4.30;2.35;;;;;;;6.71;53.74;101035.97;5033869;28;20128;-88
2021/04/16 03:08:08;;;;;;;5.43;3.10;;;;;;;6.72;53.91;101045.53;5016563;28;20376;-87
2021/04/16 03:10:35;;;;;;;7.90;2.83;;;;;;;6.72;53.78;101042.91;5016579;28;20049;-87
2021/04/16 03:13:02;;;;;;;6.63;2.63;;;;;;;6.74;53.80;101040.28;5016757;28;20049;-88
2021/04/16 03:15:28;;;;;;;4.10;2.40;;;;;;;6.76;54.00;101035.84;5016240;28;20053;-85
2021/04/16 03:17:55;;;;;;;6.55;2.78;;;;;;;6.78;53.79;101034.94;5034032;28;20055;-83
2021/04/16 03:20:22;;;;;;;6.55;2.90;;;;;;;6.78;53.68;101031.47;5016657;28;20425;-88
2021/04/16 03:22:49;;;;;;;5.18;2.88;;;;;;;6.80;53.70;101034.91;5016182;28;20052;-88
2021/04/16 03:25:16;;;;;;;8.25;2.55;;;;;;;6.82;53.96;101029.63;5016145;28;20049;-87
2021/04/16 03:27:43;;;;;;;3.95;2.40;;;;;;;6.83;53.95;101032.22;5016027;28;20049;-86
2021/04/16 03:30:14;;;;;;;6.75;2.60;;;;;;;6.84;53.93;101036.56;5016244;28;20053;-85
2021/04/16 03:32:40;;;;;;;5.75;3.10;;;;;;;6.87;53.78;101033.88;5033752;28;20049;-85
2021/04/16 03:35:07;;;;;;;4.25;2.80;;;;;;;6.89;54.07;101032.09;5033410;28;20049;-85
2021/04/16 03:37:33;;;;;;;7.22;2.53;;;;;;;6.90;53.85;101039.06;5016267;28;20053;-85
2021/04/16 03:39:59;;;;;;;5.60;2.70;;;;;;;6.92;53.86;101041.66;5016112;28;20061;-85
2021/04/16 03:42:25;;;;;;;4.82;2.53;;;;;;;6.93;53.75;101039.88;5016051;28;20544;-88
2021/04/16 03:44:51;;;;;;;8.32;2.80;;;;;;;6.94;53.66;101033.75;5033361;28;20060;-88
2021/04/16 03:47:18;;;;;;;4.28;2.70;;;;;;;6.95;53.62;101038.97;5033159;28;20045;-88
2021/04/16 03:49:45;;;;;;;4.43;2.58;;;;;;;6.96;53.82;101037.22;5015834;28;20477;-88
2021/04/16 03:52:12;;;;;;;5.53;2.75;;;;;;;6.98;53.99;101035.41;5015949;28;20046;-88
2021/04/16 03:54:39;;;;;;;4.43;2.60;;;;;;;6.99;53.78;101040.63;5015972;28;20383;-86
2021/04/16 03:57:09;;;;;;;7.32;3.30;;;;;;;6.99;54.14;101039.78;5033572;28;20402;-88
2021/04/16 03:59:35;;;;;;;7.43;2.35;;;;;;;7.00;53.95;101031.03;5033287;28;20391;-88
2021/04/16 04:02:01;;;;;;;2.80;2.40;;;;;;;7.00;54.15;101028.41;5016045;28;20057;-88
2021/04/16 04:04:28;;;;;;;5.10;2.40;;;;;;;7.00;54.11;101029.25;5015582;28;20049;-86
2021/04/16 04:06:54;;;;;;;7.18;2.97;;;;;;;7.00;53.76;101028.41;5034033;28;20060;-86
2021/04/16 04:09:22;;;;;;;4.38;2.65;;;;;;;6.99;53.86;101030.16;5016553;28;20049;-86
2021/04/16 04:11:50;;;;;;;7.60;2.97;;;;;;;6.99;54.25;101037.16;5034116;28;20088;-86
2021/04/16 04:14:16;;;;;;;5.63;2.67;;;;;;;6.98;53.96;101035.41;5016476;28;20512;-86
2021/04/16 04:16:56;;;;;;;5.68;2.72;;;;;;;6.97;54.11;101036.31;5034232;28;20053;-86
2021/04/16 04:19:25;;;;;;;5.88;2.85;;;;;;;6.97;54.34;101036.31;5016383;28;20104;-86
2021/04/16 04:21:53;;;;;;;5.85;2.88;;;;;;;6.97;54.09;101033.69;5033898;28;20053;-85
2021/04/16 04:24:20;;;;;;;5.13;2.63;;;;;;;6.97;54.30;101031.06;5015661;28;20053;-86
2021/04/16 04:26:47;;;;;;;12.60;3.53;;;;;;;6.96;54.22;101032.84;5015723;28;20049;-86
2021/04/16 04:29:16;;;;;;;9.98;3.28;;;;;;;6.97;54.47;101039.81;5015616;28;20540;-86
2021/04/16 04:31:48;;;;;;;4.55;2.67;;;;;;;6.97;54.63;101036.31;5033281;28;20057;-86
2021/04/16 04:34:18;;;;;;;5.30;2.80;;;;;;;6.98;54.74;101044.13;5033274;28;20099;-86
2021/04/16 04:36:44;;;;;;;3.72;2.63;;;;;;;7.01;54.70;101035.34;5015739;28;20460;-86
2021/04/16 04:39:12;;;;;;;8.40;3.30;;;;;;;7.01;54.51;101043.22;5035589;28;20045;-86
2021/04/16 04:41:40;;;;;;;7.32;3.47;;;;;;;7.01;54.64;101038.84;5019558;28;20046;-86
2021/04/16 04:44:07;;;;;;;5.18;3.05;;;;;;;7.03;54.37;101046.66;5036854;28;20057;-86
2021/04/16 04:46:34;;;;;;;9.82;3.60;;;;;;;7.01;54.59;101043.22;5037009;28;20072;-86
2021/04/16 04:49:01;;;;;;;6.05;2.83;;;;;;;7.00;54.61;101038.88;5036631;28;20556;-86
2021/04/16 04:51:27;;;;;;;4.50;2.65;;;;;;;7.01;54.40;101040.59;5019294;28;20056;-85
2021/04/16 04:53:53;;;;;;;7.40;3.33;;;;;;;7.01;54.61;101035.34;5036702;28;20057;-82
2021/04/16 04:56:20;;;;;;;5.93;3.30;;;;;;;7.02;54.40;101037.94;5036879;28;20053;-84
2021/04/16 04:58:46;;;;;;;5.18;2.85;;;;;;;7.04;54.70;101041.38;5019365;28;20041;-84
2021/04/16 05:01:12;;;;;;;4.82;2.60;;;;;;;7.06;54.74;101035.25;5036477;28;20045;-84
2021/04/16 05:03:38;;;;;;;5.88;3.08;;;;;;;7.08;54.42;101031.72;5019307;28;20081;-84
2021/04/16 05:06:05;;;;;;;6.35;3.03;;;;;;;7.08;54.61;101034.34;5036753;28;20057;-85
2021/04/16 05:08:31;;;;;;;6.13;3.17;;;;;;;7.09;54.51;101030.81;5036528;28;20053;-86
2021/04/16 05:10:57;;;;;;;5.47;3.00;;;;;;;7.10;54.55;101027.28;5036283;28;20437;-86
2021/04/16 05:13:23;;;;;;;6.13;2.70;;;;;;;7.11;54.54;101030.78;5036556;28;20422;-86
2021/04/16 05:15:52;;;;;;;8.63;2.83;;;;;;;7.12;54.48;101029.88;5018634;28;20049;-86
2021/04/16 05:18:18;;;;;;;5.88;3.00;;;;;;;7.14;54.65;101033.34;5018940;28;20045;-83
2021/04/16 05:20:45;;;;;;;6.55;3.10;;;;;;;7.14;54.59;101034.19;5018817;28;20060;-83
2021/04/16 05:23:11;;;;;;;7.95;3.63;;;;;;;7.14;54.60;101028.09;5018886;28;20442;-85
2021/04/16 05:25:37;;;;;;;11.98;3.88;;;;;;;7.16;54.70;101031.53;5036082;28;20049;-83
2021/04/16 05:28:04;;;;;;;6.60;2.53;;;;;;;7.17;54.53;101033.25;5036583;28;20053;-84
2021/04/16 05:30:30;;;;;;;6.60;2.97;;;;;;;7.20;54.52;101032.31;5036119;28;20045;-84
2021/04/16 05:32:56;;;;;;;6.43;3.47;;;;;;;7.22;54.59;101030.56;5036070;28;20056;-84
2021/04/16 05:35:22;;;;;;;10.38;4.07;;;;;;;7.24;54.81;101039.22;5036249;28;20480;-84
2021/04/16 05:37:48;;;;;;;8.70;3.88;;;;;;;7.24;54.50;101027.00;5018540;28;20186;-84
2021/04/16 05:40:15;;;;;;;8.32;3.20;;;;;;;7.26;54.46;101032.19;5035733;28;20046;-84
2021/04/16 05:42:41;;;;;;;6.00;3.58;;;;;;;7.26;54.71;101033.03;5018285;28;20107;-84
2021/04/16 05:45:08;;;;;;;21.90;4.15;;;;;;;7.28;54.62;101038.25;5035465;28;20103;-84
2021/04/16 05:47:34;;;;;;;6.72;3.75;;;;;;;7.29;54.72;101032.16;5018106;28;20080;-86
2021/04/16 05:50:00;;;;;;;7.93;4.03;;;;;;;7.28;54.76;101041.75;5034433;28;20091;-86
2021/04/16 05:52:27;;;;;;;5.75;3.35;;;;;;;7.31;54.77;101032.97;5018270;28;20076;-87
2021/04/16 05:54:53;;;;;;;5.55;4.03;;;;;;;7.31;54.81;101032.97;5017792;28;20414;-85
2021/04/16 05:57:19;;;;;;;6.97;3.65;;;;;;;7.33;55.00;101028.53;5018021;28;20053;-85
2021/04/16 05:59:45;;;;;;;8.95;4.47;;;;;;;7.36;54.68;101030.25;5087335;22;20049;-84
2021/04/16 06:02:42;;;;;;;8.75;3.90;;;;;;;7.34;54.86;101038.13;5078311;28;20048;-83
2021/04/16 06:05:12;;;;;;;8.88;3.80;;;;;;;7.40;54.68;101031.91;5095832;28;20052;-84
2021/04/16 06:07:39;;;;;;;9.50;3.70;;;;;;;7.43;55.08;101024.81;5095788;28;20557;-84
2021/04/16 06:10:08;;;;;;;6.53;4.07;;;;;;;7.48;54.76;101029.09;5095736;28;20126;-84
2021/04/16 06:12:34;;;;;;;10.18;4.07;;;;;;;7.50;55.23;101029.91;5078152;28;20048;-84
2021/04/16 06:15:03;;;;;;;7.57;3.75;;;;;;;7.53;55.20;101027.22;5095635;28;20048;-84
2021/04/16 06:17:29;;;;;;;5.85;3.75;;;;;;;7.58;55.07;101032.34;5077639;28;20101;-84
2021/04/16 06:19:55;;;;;;;6.75;3.65;;;;;;;7.62;55.03;101027.00;5095561;28;20051;-84
2021/04/16 06:22:21;;;;;;;6.72;4.13;;;;;;;7.67;55.08;101034.75;5095463;28;20051;-84
2021/04/16 06:24:49;;;;;;;6.95;4.00;;;;;;;7.71;55.30;101032.91;5095273;28;20405;-84
2021/04/16 06:27:15;;;;;;;6.10;3.97;;;;;;;7.76;55.04;101028.41;5095531;28;20052;-84
2021/04/16 06:29:42;;;;;;;10.88;4.00;;;;;;;7.80;54.87;101020.44;5095288;28;20051;-84
2021/04/16 06:32:09;;;;;;;12.90;4.10;;;;;;;7.85;54.78;101028.19;5095266;28;20484;-84
2021/04/16 06:34:35;;;;;;;5.68;3.85;;;;;;;7.89;54.80;101024.56;5095405;28;20151;-84
2021/04/16 06:37:02;;;;;;;6.43;4.10;;;;;;;7.93;54.82;101020.13;5095306;28;20415;-84
2021/04/16 06:39:28;;;;;;;6.55;3.60;;;;;;;7.98;54.92;101022.63;5095424;28;20044;-84
2021/04/16 06:41:54;;;;;;;8.57;3.83;;;;;;;8.02;54.59;101019.03;5095344;28;20055;-84
2021/04/16 06:44:24;;;;;;;7.55;4.50;;;;;;;8.05;54.32;101030.31;5094937;28;20105;-84
2021/04/16 06:47:07;;;;;;;7.57;3.80;;;;;;;8.10;54.13;101021.47;5095555;28;20048;-84
2021/04/16 06:49:37;;;;;;;6.22;3.60;;;;;;;8.15;54.34;101022.19;5095375;28;20131;-84
2021/04/16 06:52:14;;;;;;;7.38;3.80;;;;;;;8.18;53.76;101022.97;5095638;28;20113;-84
2021/04/16 06:55:12;;;;;;;4.93;3.25;;;;;;;8.22;53.80;101015.88;5077229;28;20098;-84
2021/04/16 06:57:54;;;;;;;5.53;3.10;;;;;;;8.27;53.99;101019.25;5077198;28;20044;-84
2021/04/16 07:00:45;;;;;;;7.28;3.13;;;;;;;8.33;53.89;101020.81;5076775;28;20044;-84
2021/04/16 07:03:24;;;;;;;6.90;3.58;;;;;;;8.37;53.64;101017.22;5094992;28;20048;-84
2021/04/16 07:05:57;;;;;;;8.30;3.97;;;;;;;8.42;53.73;101017.97;5094771;28;20408;-84
2021/04/16 07:08:39;;;;;;;7.57;3.40;;;;;;;8.45;53.24;101017.88;5094830;28;20048;-84
2021/04/16 07:11:35;;;;;;;7.28;3.92;;;;;;;8.47;53.66;101018.72;5094588;28;20097;-84
2021/04/16 07:14:04;;;;;;;5.47;3.17;;;;;;;8.55;53.87;101020.28;5087884;28;20079;-84
2021/04/16 07:16:32;;;;;;;7.18;3.72;;;;;;;8.57;53.85;101024.56;5094489;28;20055;-84
2021/04/16 07:19:02;;;;;;;6.47;3.40;;;;;;;8.60;53.80;101015.78;5094730;28;20093;-84
2021/04/16 07:21:28;;;;;;;4.78;3.05;;;;;;;8.64;53.86;101022.66;5094744;28;20052;-84
2021/04/16 07:24:00;;;;;;;10.32;3.90;;;;;;;8.67;53.98;101024.34;5094149;28;20412;-84
2021/04/16 07:26:50;;;;;;;6.25;3.85;;;;;;;8.71;53.80;101020.72;5094047;28;20048;-84
2021/04/16 07:29:39;;;;;;;4.30;3.30;;;;;;;8.71;53.65;101021.56;5094424;28;20059;-84
2021/04/16 07:32:07;;;;;;;5.03;2.97;;;;;;;8.79;53.80;101025.72;5094783;28;20082;-85
2021/04/16 07:34:46;;;;;;;8.30;3.53;;;;;;;8.79;53.44;101023.94;5076258;28;20075;-84
2021/04/16 07:37:20;;;;;;;4.38;2.95;;;;;;;8.84;53.48;101029.97;5076414;28;20056;-84
2021/04/16 07:40:03;;;;;;;8.13;3.80;;;;;;;8.85;53.44;101025.53;5094035;28;20131;-84
2021/04/16 07:42:43;;;;;;;;;;;;;;;8.91;53.13;101025.38;5095136;28;20048;-84
2021/04/16 07:45:24;;;;;;;6.10;3.60;;;;;;;8.99;53.64;101027.78;5094147;28;19920;-84
2021/04/16 07:47:54;;;;;;;7.65;3.50;;;;;;;9.01;53.55;101030.34;5093739;28;20511;-84
2021/04/16 07:50:30;;;;;;;5.88;3.38;;;;;;;9.01;53.33;101030.34;5094093;28;20424;-84
2021/04/16 07:52:57;;;;;;;7.72;3.60;;;;;;;9.05;53.21;101022.31;5094280;28;20051;-84
2021/04/16 07:55:35;;;;;;;7.93;3.90;;;;;;;9.06;53.48;101024.06;5075870;28;20123;-84
2021/04/16 07:58:06;;;;;;;8.05;3.60;;;;;;;9.09;53.07;101017.84;5094765;28;20097;-84
2021/04/16 08:00:37;;;;;;;8.63;3.70;;;;;;;9.12;53.29;101021.25;5094449;28;20117;-84
2021/04/16 08:03:19;;;;;;;4.85;4.05;;;;;;;9.15;53.15;101022.91;5094160;28;20059;-84
2021/04/16 08:05:52;;;;;;;8.07;3.67;;;;;;;9.20;53.31;101023.63;5093575;28;20511;-85
2021/04/16 08:08:20;;;;;;;7.43;3.58;;;;;;;9.27;53.44;101026.06;5094223;28;20431;-84
2021/04/16 08:11:00;;;;;;;7.30;3.75;;;;;;;9.29;53.27;101021.63;5093541;28;20052;-84
2021/04/16 08:13:31;;;;;;;6.82;3.60;;;;;;;9.36;53.41;101025.78;5095042;28;20056;-84
2021/04/16 08:16:16;;;;;;;8.95;3.50;;;;;;;9.39;52.84;101015.19;5080024;28;20059;-84
2021/04/16 08:19:08;;;;;;;8.95;3.45;;;;;;;9.47;52.91;101018.44;5079902;28;20510;-84
2021/04/16 08:21:44;;;;;;;5.28;2.92;;;;;;;9.56;53.13;101016.38;5085634;28;20105;-84
2021/04/16 08:24:34;;;;;;;5.55;3.13;;;;;;;9.63;53.24;101013.53;5097297;28;20484;-86
2021/04/16 08:27:11;;;;;;;4.90;3.08;;;;;;;9.72;53.35;101012.34;5097409;28;20059;-87
2021/04/16 08:29:41;;;;;;;5.65;3.03;;;;;;;9.83;53.78;101011.16;5079312;28;20087;-86
2021/04/16 08:32:26;;;;;;;5.32;2.60;;;;;;;9.92;53.21;101010.84;5097447;28;20051;-86
2021/04/16 08:35:16;;;;;;;4.32;3.22;;;;;;;10.04;53.57;101002.53;5096952;28;20048;-86
2021/04/16 08:37:46;;;;;;;3.53;2.40;;;;;;;10.20;53.35;100999.34;5066178;28;20077;-86
2021/04/16 08:40:21;;;;;;;3.70;2.05;;;;;;;10.32;52.70;101000.66;5097049;28;20044;-86
2021/04/16 08:42:47;;;;;;;4.97;2.30;;;;;;;10.47;52.97;101001.06;5079275;28;20420;-86
2021/04/16 08:45:18;;;;;;;5.45;1.80;;;;;;;10.57;52.37;100996.34;5096745;28;20051;-87
2021/04/16 08:47:59;;;;;;;4.97;2.03;;;;;;;10.67;50.88;101001.22;5096886;28;20490;-86
2021/04/16 08:50:44;;;;;;;2.92;1.60;;;;;;;10.80;50.63;100990.19;5078700;28;20051;-86
2021/04/16 08:53:10;;;;;;;3.72;1.40;;;;;;;10.95;50.80;101004.53;5096889;28;20511;-86
2021/04/16 08:55:43;;;;;;;2.90;1.38;;;;;;;11.01;49.56;100999.06;5096575;28;20051;-87
2021/04/16 08:58:30;;;;;;;2.53;1.45;;;;;;;11.11;49.05;101015.38;5078855;28;20089;-86
2021/04/16 09:01:08;;;;;;;2.17;1.67;;;;;;;11.20;48.93;101009.75;5078665;28;20059;-86
2021/04/16 09:03:52;;;;;;;2.95;1.58;;;;;;;11.29;49.01;101011.13;5096846;28;20047;-86
2021/04/16 09:06:42;;;;;;;2.03;1.55;;;;;;;11.38;48.79;101006.41;5096871;28;20159;-86
2021/04/16 09:09:13;;;;;;;3.25;1.25;;;;;;;11.46;48.63;101004.34;5078697;28;20439;-87
2021/04/16 09:11:45;;;;;;;1.98;1.65;;;;;;;11.53;48.41;100995.25;5078542;28;20063;-86
2021/04/16 09:14:26;;;;;;;2.42;1.52;;;;;;;11.61;49.33;101002.84;5096199;28;20051;-87
2021/04/16 09:16:56;;;;;;;3.38;1.80;;;;;;;11.68;48.61;101000.81;5096583;28;20051;-86
2021/04/16 09:19:25;;;;;;;2.60;1.55;;;;;;;11.74;48.27;101008.47;5096348;28;20047;-86
2021/04/16 09:22:07;;;;;;;3.20;1.73;;;;;;;11.81;48.26;100994.09;5096430;28;20052;-87
2021/04/16 09:24:51;;;;;;;4.25;1.85;;;;;;;11.91;47.92;100994.56;5095943;28;20083;-86
2021/04/16 09:27:36;;;;;;;3.85;1.90;;;;;;;11.99;47.57;100997.75;5078354;28;20051;-86
2021/04/16 09:30:05;;;;;;;4.95;1.80;;;;;;;12.11;48.86;100993.72;5078163;28;20048;-86
2021/04/16 09:32:46;;;;;;;4.28;1.60;;;;;;;12.17;48.02;100987.34;5078076;28;20044;-87
2021/04/16 09:35:18;;;;;;;3.88;1.77;;;;;;;12.24;46.84;100986.16;5077918;28;20397;-86
2021/04/16 09:37:51;;;;;;;2.88;1.88;;;;;;;12.34;47.97;100977.81;5096106;28;20454;-86
2021/04/16 09:40:17;;;;;;;3.80;1.60;;;;;;;12.43;47.95;100977.41;5096055;28;20040;-86
2021/04/16 09:42:56;;;;;;;3.75;1.70;;;;;;;12.51;46.40;100979.69;5078071;28;20426;-86
2021/04/16 09:45:22;;;;;;;2.03;1.55;;;;;;;12.64;47.75;100970.25;5077911;28;20086;-87
2021/04/16 09:47:53;;;;;;;3.50;1.67;;;;;;;12.75;46.75;100966.28;5077835;28;20430;-86
2021/04/16 09:50:29;;;;;;;2.80;1.63;;;;;;;12.90;47.61;100970.81;5077686;28;20071;-86
2021/04/16 09:53:22;;;;;;;1.70;1.40;;;;;;;13.08;46.86;100968.25;5080885;28;20079;-87
2021/04/16 09:56:09;;;;;;;3.90;1.83;;;;;;;13.23;46.82;100974.56;5077429;28;20101;-87
2021/04/16 09:58:39;;;;;;;3.63;1.55;;;;;;;13.39;46.49;100966.75;5095642;28;20052;-86
2021/04/16 10:01:06;;;;;;;2.30;1.88;;;;;;;13.56;47.44;100973.00;5095379;28;20058;-87
2021/04/16 10:03:32;;;;;;;2.90;1.85;;;;;;;13.72;47.06;100965.16;5077726;28;20059;-87
2021/04/16 10:06:15;;;;;;;3.58;1.85;;;;;;;13.87;45.25;100970.63;5095405;28;20130;-87
2021/04/16 10:08:44;;;;;;;2.72;1.55;;;;;;;14.05;45.93;100956.41;5077568;28;20405;-87
2021/04/16 10:11:13;;;;;;;3.03;1.80;;;;;;;14.23;45.88;100950.22;5077117;28;20044;-87
2021/04/16 10:13:40;;;;;;;3.55;1.65;;;;;;;14.37;45.37;100955.66;5095460;28;20097;-86
2021/04/16 10:16:25;;;;;;;2.70;1.85;;;;;;;14.46;43.91;100949.84;5095354;28;20077;-86
2021/04/16 10:18:53;;;;;;;3.38;1.38;;;;;;;14.62;45.20;100943.72;5095609;28;20052;-87
2021/04/16 10:21:27;;;;;;;2.55;1.30;;;;;;;14.69;42.96;100952.19;5095247;28;20081;-87
2021/04/16 10:35:57;;;;;;;2.17;1.40;;;;;;;14.91;43.22;100938.59;5095006;28;20052;-86
2021/04/16 11:16:53;;;;;;;2.83;1.30;;;;;;;15.50;41.49;100894.59;5031787;28;20104;-86
2021/04/16 12:39:44;;;;;;;3.42;1.30;;;;;;;24.22;29.61;100848.72;5093343;28;20048;-85
2021/04/16 12:42:10;;;;;;;2.35;1.38;;;;;;;23.91;29.70;100846.31;5075256;28;20047;-87
2021/04/16 12:44:49;;;;;;;2.97;1.48;;;;;;;23.66;31.05;100840.63;5074926;28;20048;-86
2021/04/16 12:47:18;;;;;;;2.22;1.40;;;;;;;23.73;30.13;100843.56;5075410;28;20075;-87
2021/04/16 12:49:45;;;;;;;1.83;1.40;;;;;;;23.97;31.66;100836.81;5093075;28;20054;-86
2021/04/16 12:52:13;;;;;;;1.92;1.48;;;;;;;24.27;31.22;100841.06;5093167;28;20082;-87
2021/04/16 12:54:41;;;;;;;2.65;1.40;;;;;;;24.48;30.11;100833.72;5074945;28;20454;-87
2021/04/16 12:57:15;;;;;;;6.13;1.50;;;;;;;24.48;29.06;100831.03;5075261;28;20048;-86
2021/04/16 12:59:41;;;;;;;1.42;1.27;;;;;;;24.36;29.03;100830.41;5076589;28;20040;-86
2021/04/16 13:02:23;;;;;;;3.20;1.40;;;;;;;24.13;28.68;100836.19;5096679;28;20048;-87
2021/04/16 13:04:50;;;;;;;2.10;1.40;;;;;;;23.99;29.81;100827.59;5096535;28;20553;-87
2021/04/16 13:07:17;;;;;;;1.17;1.08;;;;;;;23.93;29.63;100831.72;5096653;28;20488;-87
2021/04/16 13:09:43;;;;;;;2.03;1.23;;;;;;;23.97;30.16;100823.38;5078509;28;20048;-87
2021/04/16 13:12:09;;;;;;;1.80;1.20;;;;;;;24.03;29.97;100833.53;5078753;28;20056;-87
2021/04/16 13:14:35;;;;;;;4.85;1.67;;;;;;;24.05;29.03;100831.53;5096441;28;20470;-87
2021/04/16 13:17:02;;;;;;;2.15;1.35;;;;;;;23.94;27.98;100828.06;5096677;28;20542;-85
2021/04/16 13:19:32;;;;;;;1.85;1.45;;;;;;;23.66;27.62;100816.44;5078566;28;20073;-85
2021/04/16 13:22:10;;;;;;;3.13;1.60;;;;;;;23.21;26.97;100826.84;5078325;28;20492;-85
2021/04/16 13:24:37;;;;;;;2.78;1.65;;;;;;;22.80;27.83;100827.03;5096123;28;20048;-87
2021/04/16 13:27:07;;;;;;;3.97;1.50;;;;;;;22.36;27.84;100830.09;5078302;28;20055;-86
2021/04/16 13:29:33;;;;;;;2.22;1.40;;;;;;;22.06;29.62;100819.31;5096371;28;20052;-85
2021/04/16 13:32:01;;;;;;;1.40;1.20;;;;;;;21.89;29.86;100828.81;5078521;28;20055;-85
2021/04/16 13:34:29;;;;;;;1.50;1.40;;;;;;;21.77;29.54;100828.09;5096074;28;20386;-84
2021/04/16 13:36:56;;;;;;;2.38;1.45;;;;;;;21.66;29.73;100823.63;5078456;28;20047;-85
2021/04/16 13:39:22;;;;;;;1.70;1.20;;;;;;;21.57;29.83;100824.44;5096114;28;20481;-86
2021/04/16 13:41:48;;;;;;;1.55;1.25;;;;;;;21.56;31.40;100820.91;5095717;28;20459;-87
2021/04/16 13:44:15;;;;;;;1.77;1.52;;;;;;;21.72;31.11;100807.03;5095842;28;20075;-87
2021/04/16 13:46:47;;;;;;;3.47;1.60;;;;;;;21.94;30.81;100809.66;5078477;28;20048;-87
2021/04/16 13:49:18;;;;;;;2.72;1.75;;;;;;;22.06;29.88;100808.59;5078097;28;20471;-87
2021/04/16 13:51:44;;;;;;;3.92;1.40;;;;;;;22.26;30.67;100800.56;5077984;28;20063;-87
2021/04/16 13:54:13;;;;;;;2.50;1.50;;;;;;;22.55;30.82;100801.59;5095541;28;20048;-87
2021/04/16 13:56:39;;;;;;;3.00;1.60;;;;;;;22.97;31.30;100793.25;5095572;28;20048;-87
2021/04/16 13:59:06;;;;;;;1.80;1.27;;;;;;;23.50;31.86;100792.84;5077813;28;20450;-88